Batumi International Airport
UGSB : rendu visible

Aérodrome :











RETROUVEZ-NOUS SUR...

 
LOGIN :

S'inscrire | Disclaimer

   EN    FR    IT 

 









Légende :    VFR   VFR Marginal   IFR   IFR Intensif   IFR Très Intensif
Visi : 
Plafond : 
>= 8 km
>= 3000ft
5 à 8 km
1000 à 3000 ft
1500m à 5 km
500 à 1000 ft
800 à 1500m
200 à 500 ft
< 800m
< 200 ft
Symboles :   Orages  Brouillard  Fortes neiges  Fortes précipitations  Vent > 20 kt







- Altitude de l'aérodrome : 105 ft
- Code IATA : BUS


UGSB - Batumi International

DERNIER METAR :
  • 250830Z 35006KT CAVOK 21/16 Q1010 R13/70D NOSIG

METARs EXPIRÉS :
  • 250800Z 36007KT 330V030 CAVOK 20/14 Q1010 R13/CLRD70 NOSIG
  • 250730Z 36007KT CAVOK 20/13 Q1010 R13/70D NOSIG
  • 250700Z 01007KT CAVOK 19/13 Q1010 R13/70D NOSIG
  • 250630Z 36006KT CAVOK 19/13 Q1010 R13/70D NOSIG
  • 250600Z 02004KT 330V070 CAVOK 20/13 Q1011 R13/70D NOSIG

TAF TAF UGSB
Valide du 25 à 06h jusqu'au 26 à 06h UTC


250500Z 2506/2606 01007KT CAVOK TX22/2511Z TN18/2601Z
TEMPO 2506/2508 12012KT
BECMG 2516/2518 12015KT
BECMG 2523/2601 21015KT SCT030 BKN080
TEMPO 2500/2606 22025KT
FIR UGGG / Asie



MET'MAP, la Météo Aéronautique d'un coup d'oeil ! - Copyright ORBIFLY Décembre 2007 - Disclaimer

ORBIFLY MET'MAP TEAM :

Programmation & Développement : Alexandra Zaïnal
Conception & Développement : Baudouin d'Aumeries
Co-Programmation & Développement : Marc-Olivier Méhu
Soutien technique & logistique : Manuel Goepfert

Contact : metmap@orbifly.com




SOURCES & CREDITS :

   NOAA       Earth
Advisory